Time;durP1;ratioP1;P1;durP2;ratioP2;P2;SDS_P1;SDS_P2;PMS_P1;PMS_P2;Temp;Humidity;BMP_temperature;BMP_pressure;BME280_temperature;BME280_humidity;BME280_pressure;Samples;Min_cycle;Max_cycle;Signal;HPM_P1;HPM_P2
2022/08/09 00:00:45;;;;;;;7.050002;6.45;;;;;;;14.53;69.53418;95907.79;;;;
2022/08/09 00:01:47;;;;;;;7.050002;6.45;;;;;;;14.53;69.53418;95907.79;;;;
2022/08/09 00:02:47;;;;;;;7.050002;6.45;;;;;;;14.53;69.53418;95907.79;;;;
2022/08/09 00:03:48;;;;;;;7.050002;6.45;;;;;;;14.53;69.53418;95907.79;;;;
2022/08/09 00:04:49;;;;;;;7.050002;6.45;;;;;;;14.53;69.53418;95907.79;;;;
2022/08/09 00:05:50;;;;;;;7.050002;6.45;;;;;;;14.53;69.53418;95907.79;;;;
2022/08/09 00:06:50;;;;;;;7.050002;6.45;;;;;;;14.53;69.53418;95907.79;;;;
2022/08/09 00:07:51;;;;;;;7.050002;6.45;;;;;;;14.53;69.53418;95907.79;;;;
2022/08/09 00:08:51;;;;;;;7;6.400001;;;;;;;14.43;69.89844;95909.64;;;;
2022/08/09 00:09:52;;;;;;;7;6.400001;;;;;;;14.43;69.89844;95909.64;;;;
2022/08/09 00:10:52;;;;;;;7;6.400001;;;;;;;14.43;69.89844;95909.64;;;;
2022/08/09 00:11:53;;;;;;;7;6.400001;;;;;;;14.43;69.89844;95909.64;;;;
2022/08/09 00:12:54;;;;;;;7;6.400001;;;;;;;14.43;69.89844;95909.64;;;;
2022/08/09 00:13:54;;;;;;;7;6.400001;;;;;;;14.43;69.89844;95909.64;;;;
2022/08/09 00:14:55;;;;;;;7;6.400001;;;;;;;14.43;69.89844;95909.64;;;;
2022/08/09 00:15:56;;;;;;;7;6.400001;;;;;;;14.43;69.89844;95909.64;;;;
2022/08/09 00:16:56;;;;;;;7;6.400001;;;;;;;14.43;69.89844;95909.64;;;;
2022/08/09 00:17:57;;;;;;;7;6.400001;;;;;;;14.43;69.89844;95909.64;;;;
2022/08/09 00:18:57;;;;;;;7;6.400001;;;;;;;14.43;69.89844;95909.64;;;;
2022/08/09 00:19:58;;;;;;;7;6.4;;;;;;;14.26;70.26172;95917.08;;;;
2022/08/09 00:20:58;;;;;;;7;6.4;;;;;;;14.26;70.26172;95917.08;;;;
2022/08/09 00:22:00;;;;;;;7;6.4;;;;;;;14.26;70.26172;95917.08;;;;
2022/08/09 00:23:00;;;;;;;7;6.4;;;;;;;14.26;70.26172;95917.08;;;;
2022/08/09 00:24:01;;;;;;;7;6.4;;;;;;;14.26;70.26172;95917.08;;;;
2022/08/09 00:25:01;;;;;;;7;6.4;;;;;;;14.26;70.26172;95917.08;;;;
2022/08/09 00:26:02;;;;;;;7;6.4;;;;;;;14.26;70.26172;95917.08;;;;
2022/08/09 00:27:03;;;;;;;7;6.4;;;;;;;14.26;70.26172;95917.08;;;;
2022/08/09 00:28:05;;;;;;;7;6.4;;;;;;;14.26;70.26172;95917.08;;;;
2022/08/09 00:29:05;;;;;;;7;6.4;;;;;;;14.26;70.26172;95917.08;;;;
2022/08/09 00:30:06;;;;;;;7.65;6.900001;;;;;;;14.17;70.72559;95913.85;;;;
2022/08/09 00:31:07;;;;;;;7.65;6.900001;;;;;;;14.17;70.72559;95913.85;;;;
2022/08/09 00:32:08;;;;;;;7.65;6.900001;;;;;;;14.17;70.72559;95913.85;;;;
2022/08/09 00:33:08;;;;;;;7.65;6.900001;;;;;;;14.17;70.72559;95913.85;;;;
2022/08/09 00:34:09;;;;;;;7.65;6.900001;;;;;;;14.17;70.72559;95913.85;;;;
2022/08/09 00:35:09;;;;;;;7.65;6.900001;;;;;;;14.17;70.72559;95913.85;;;;
2022/08/09 00:36:10;;;;;;;7.65;6.900001;;;;;;;14.17;70.72559;95913.85;;;;
2022/08/09 00:37:10;;;;;;;7.65;6.900001;;;;;;;14.17;70.72559;95913.85;;;;
2022/08/09 00:38:11;;;;;;;7.65;6.900001;;;;;;;14.17;70.72559;95913.85;;;;
2022/08/09 00:39:12;;;;;;;7.65;6.900001;;;;;;;14.17;70.72559;95913.85;;;;
2022/08/09 00:40:12;;;;;;;7.65;6.900001;;;;;;;14.17;70.72559;95913.85;;;;
2022/08/09 00:41:12;;;;;;;9.25;6.950001;;;;;;;14.03;71.08301;95925.23;;;;
2022/08/09 00:42:13;;;;;;;9.25;6.950001;;;;;;;14.03;71.08301;95925.23;;;;
2022/08/09 00:43:13;;;;;;;9.25;6.950001;;;;;;;14.03;71.08301;95925.23;;;;
2022/08/09 00:44:15;;;;;;;9.25;6.950001;;;;;;;14.03;71.08301;95925.23;;;;
2022/08/09 00:45:15;;;;;;;9.25;6.950001;;;;;;;14.03;71.08301;95925.23;;;;
2022/08/09 00:46:16;;;;;;;9.25;6.950001;;;;;;;14.03;71.08301;95925.23;;;;
2022/08/09 00:47:17;;;;;;;9.25;6.950001;;;;;;;14.03;71.08301;95925.23;;;;
2022/08/09 00:48:18;;;;;;;9.25;6.950001;;;;;;;14.03;71.08301;95925.23;;;;
2022/08/09 00:49:18;;;;;;;9.25;6.950001;;;;;;;14.03;71.08301;95925.23;;;;
2022/08/09 00:50:19;;;;;;;9.25;6.950001;;;;;;;14.03;71.08301;95925.23;;;;
2022/08/09 00:51:19;;;;;;;7.249999;6.65;;;;;;;13.94;71.40625;95920.31;;;;
2022/08/09 00:52:21;;;;;;;7.249999;6.65;;;;;;;13.94;71.40625;95920.31;;;;
2022/08/09 00:53:23;;;;;;;7.249999;6.65;;;;;;;13.94;71.40625;95920.31;;;;
2022/08/09 00:54:24;;;;;;;7.249999;6.65;;;;;;;13.94;71.40625;95920.31;;;;
2022/08/09 00:55:25;;;;;;;7.249999;6.65;;;;;;;13.94;71.40625;95920.31;;;;
2022/08/09 00:56:25;;;;;;;7.249999;6.65;;;;;;;13.94;71.40625;95920.31;;;;
2022/08/09 00:57:26;;;;;;;7.249999;6.65;;;;;;;13.94;71.40625;95920.31;;;;
2022/08/09 00:58:27;;;;;;;7.249999;6.65;;;;;;;13.94;71.40625;95920.31;;;;
2022/08/09 00:59:28;;;;;;;7.249999;6.65;;;;;;;13.94;71.40625;95920.31;;;;
2022/08/09 01:00:28;;;;;;;7.249999;6.65;;;;;;;13.94;71.40625;95920.31;;;;
2022/08/09 01:01:29;;;;;;;7.249999;6.65;;;;;;;13.94;71.40625;95920.31;;;;
2022/08/09 01:02:34;;;;;;;7.799999;7.1;;;;;;;13.77;71.80078;95922.77;;;;
2022/08/09 01:03:37;;;;;;;7.799999;7.1;;;;;;;13.77;71.80078;95922.77;;;;
2022/08/09 01:04:47;;;;;;;7.799999;7.1;;;;;;;13.77;71.80078;95922.77;;;;
2022/08/09 01:05:56;;;;;;;7.799999;7.1;;;;;;;13.77;71.80078;95922.77;;;;
2022/08/09 01:07:04;;;;;;;7.799999;7.1;;;;;;;13.77;71.80078;95922.77;;;;
2022/08/09 01:08:15;;;;;;;7.799999;7.1;;;;;;;13.77;71.80078;95922.77;;;;
2022/08/09 01:09:27;;;;;;;7.799999;7.1;;;;;;;13.77;71.80078;95922.77;;;;
2022/08/09 01:10:36;;;;;;;7.799999;7.1;;;;;;;13.77;71.80078;95922.77;;;;
2022/08/09 01:11:44;;;;;;;7.799999;7.1;;;;;;;13.77;71.80078;95922.77;;;;
2022/08/09 01:12:56;;;;;;;7.55;6.75;;;;;;;13.69;72.10156;95920.37;;;;
2022/08/09 01:14:02;;;;;;;7.55;6.75;;;;;;;13.69;72.10156;95920.37;;;;
2022/08/09 01:15:07;;;;;;;7.55;6.75;;;;;;;13.69;72.10156;95920.37;;;;
2022/08/09 01:16:12;;;;;;;7.55;6.75;;;;;;;13.69;72.10156;95920.37;;;;
2022/08/09 01:17:15;;;;;;;7.55;6.75;;;;;;;13.69;72.10156;95920.37;;;;
2022/08/09 01:18:26;;;;;;;7.55;6.75;;;;;;;13.69;72.10156;95920.37;;;;
2022/08/09 01:19:31;;;;;;;7.55;6.75;;;;;;;13.69;72.10156;95920.37;;;;
2022/08/09 01:20:41;;;;;;;7.55;6.75;;;;;;;13.69;72.10156;95920.37;;;;
2022/08/09 01:21:47;;;;;;;7.55;6.75;;;;;;;13.69;72.10156;95920.37;;;;
2022/08/09 01:22:56;;;;;;;7.55;6.75;;;;;;;13.69;72.10156;95920.37;;;;
2022/08/09 01:24:10;;;;;;;7.75;7.050002;;;;;;;13.55;72.39551;95926.7;;;;
2022/08/09 01:25:19;;;;;;;7.75;7.050002;;;;;;;13.55;72.39551;95926.7;;;;
2022/08/09 01:26:34;;;;;;;7.75;7.050002;;;;;;;13.55;72.39551;95926.7;;;;
2022/08/09 01:28:00;;;;;;;7.75;7.050002;;;;;;;13.55;72.39551;95926.7;;;;
2022/08/09 01:29:05;;;;;;;7.75;7.050002;;;;;;;13.55;72.39551;95926.7;;;;
2022/08/09 01:30:09;;;;;;;7.75;7.050002;;;;;;;13.55;72.39551;95926.7;;;;
2022/08/09 01:31:10;;;;;;;7.75;7.050002;;;;;;;13.55;72.39551;95926.7;;;;
2022/08/09 01:32:14;;;;;;;7.75;7.050002;;;;;;;13.55;72.39551;95926.7;;;;
2022/08/09 01:33:17;;;;;;;7.75;7.050002;;;;;;;13.55;72.39551;95926.7;;;;
2022/08/09 01:34:22;;;;;;;7.600001;7;;;;;;;13.48;72.73047;95926.86;;;;
2022/08/09 01:35:24;;;;;;;7.600001;7;;;;;;;13.48;72.73047;95926.86;;;;
2022/08/09 01:36:32;;;;;;;7.600001;7;;;;;;;13.48;72.73047;95926.86;;;;
2022/08/09 01:37:35;;;;;;;7.600001;7;;;;;;;13.48;72.73047;95926.86;;;;
2022/08/09 01:38:38;;;;;;;7.600001;7;;;;;;;13.48;72.73047;95926.86;;;;
2022/08/09 01:39:42;;;;;;;7.600001;7;;;;;;;13.48;72.73047;95926.86;;;;
2022/08/09 01:40:45;;;;;;;7.600001;7;;;;;;;13.48;72.73047;95926.86;;;;
2022/08/09 01:41:49;;;;;;;7.600001;7;;;;;;;13.48;72.73047;95926.86;;;;
2022/08/09 01:42:51;;;;;;;7.600001;7;;;;;;;13.48;72.73047;95926.86;;;;
2022/08/09 01:43:53;;;;;;;7.600001;7;;;;;;;13.48;72.73047;95926.86;;;;
2022/08/09 01:44:58;;;;;;;7.9;7.299999;;;;;;;13.36;72.96875;95925.11;;;;
2022/08/09 01:45:59;;;;;;;7.9;7.299999;;;;;;;13.36;72.96875;95925.11;;;;
2022/08/09 01:47:00;;;;;;;7.9;7.299999;;;;;;;13.36;72.96875;95925.11;;;;
2022/08/09 01:48:03;;;;;;;7.9;7.299999;;;;;;;13.36;72.96875;95925.11;;;;
2022/08/09 01:49:05;;;;;;;7.9;7.299999;;;;;;;13.36;72.96875;95925.11;;;;
2022/08/09 01:50:08;;;;;;;7.9;7.299999;;;;;;;13.36;72.96875;95925.11;;;;
2022/08/09 01:51:10;;;;;;;7.9;7.299999;;;;;;;13.36;72.96875;95925.11;;;;
2022/08/09 01:52:12;;;;;;;7.9;7.299999;;;;;;;13.36;72.96875;95925.11;;;;
2022/08/09 01:53:16;;;;;;;7.9;7.299999;;;;;;;13.36;72.96875;95925.11;;;;
2022/08/09 01:54:19;;;;;;;7.9;7.299999;;;;;;;13.36;72.96875;95925.11;;;;
2022/08/09 01:55:23;;;;;;;7.849999;7.15;;;;;;;13.3;73.28516;95929.41;;;;
2022/08/09 01:56:25;;;;;;;7.849999;7.15;;;;;;;13.3;73.28516;95929.41;;;;
2022/08/09 01:57:27;;;;;;;7.849999;7.15;;;;;;;13.3;73.28516;95929.41;;;;
2022/08/09 01:58:33;;;;;;;7.849999;7.15;;;;;;;13.3;73.28516;95929.41;;;;
2022/08/09 01:59:36;;;;;;;7.849999;7.15;;;;;;;13.3;73.28516;95929.41;;;;
2022/08/09 02:00:40;;;;;;;7.849999;7.15;;;;;;;13.3;73.28516;95929.41;;;;
2022/08/09 02:01:42;;;;;;;7.849999;7.15;;;;;;;13.3;73.28516;95929.41;;;;
2022/08/09 02:02:46;;;;;;;7.849999;7.15;;;;;;;13.3;73.28516;95929.41;;;;
2022/08/09 02:03:49;;;;;;;7.849999;7.15;;;;;;;13.3;73.28516;95929.41;;;;
2022/08/09 02:04:50;;;;;;;7.849999;7.15;;;;;;;13.3;73.28516;95929.41;;;;
2022/08/09 02:05:54;;;;;;;7.849999;7.15;;;;;;;13.3;73.28516;95929.41;;;;
2022/08/09 02:07:12;;;;;;;8.1;7.400001;;;;;;;13.17;73.54492;95936.94;;;;
2022/08/09 02:08:17;;;;;;;8.1;7.400001;;;;;;;13.17;73.54492;95936.94;;;;
2022/08/09 02:09:20;;;;;;;8.1;7.400001;;;;;;;13.17;73.54492;95936.94;;;;
2022/08/09 02:10:22;;;;;;;8.1;7.400001;;;;;;;13.17;73.54492;95936.94;;;;
2022/08/09 02:11:27;;;;;;;8.1;7.400001;;;;;;;13.17;73.54492;95936.94;;;;
2022/08/09 02:12:27;;;;;;;8.1;7.400001;;;;;;;13.17;73.54492;95936.94;;;;
2022/08/09 02:13:31;;;;;;;8.1;7.400001;;;;;;;13.17;73.54492;95936.94;;;;
2022/08/09 02:14:34;;;;;;;8.1;7.400001;;;;;;;13.17;73.54492;95936.94;;;;
2022/08/09 02:15:38;;;;;;;8.1;7.400001;;;;;;;13.17;73.54492;95936.94;;;;
2022/08/09 02:16:42;;;;;;;8.25;7.550001;;;;;;;13.13;73.80762;95941.16;;;;
2022/08/09 02:17:43;;;;;;;8.25;7.550001;;;;;;;13.13;73.80762;95941.16;;;;
2022/08/09 02:18:46;;;;;;;8.25;7.550001;;;;;;;13.13;73.80762;95941.16;;;;
2022/08/09 02:19:48;;;;;;;8.25;7.550001;;;;;;;13.13;73.80762;95941.16;;;;
2022/08/09 02:20:49;;;;;;;8.25;7.550001;;;;;;;13.13;73.80762;95941.16;;;;
2022/08/09 02:21:54;;;;;;;8.25;7.550001;;;;;;;13.13;73.80762;95941.16;;;;
2022/08/09 02:22:58;;;;;;;8.25;7.550001;;;;;;;13.13;73.80762;95941.16;;;;
2022/08/09 02:24:03;;;;;;;8.25;7.550001;;;;;;;13.13;73.80762;95941.16;;;;
2022/08/09 02:25:09;;;;;;;8.25;7.550001;;;;;;;13.13;73.80762;95941.16;;;;
2022/08/09 02:26:16;;;;;;;8.25;7.550001;;;;;;;13.13;73.80762;95941.16;;;;
2022/08/09 02:27:19;;;;;;;8.25;7.550001;;;;;;;13.13;73.80762;95941.16;;;;
2022/08/09 02:28:23;;;;;;;7.900001;7.2;;;;;;;13.01;74.04688;95941.5;;;;
2022/08/09 02:29:32;;;;;;;7.900001;7.2;;;;;;;13.01;74.04688;95941.5;;;;
2022/08/09 02:30:37;;;;;;;7.900001;7.2;;;;;;;13.01;74.04688;95941.5;;;;
2022/08/09 02:31:42;;;;;;;7.900001;7.2;;;;;;;13.01;74.04688;95941.5;;;;
2022/08/09 02:32:45;;;;;;;7.900001;7.2;;;;;;;13.01;74.04688;95941.5;;;;
2022/08/09 02:33:47;;;;;;;7.900001;7.2;;;;;;;13.01;74.04688;95941.5;;;;
2022/08/09 02:34:51;;;;;;;7.900001;7.2;;;;;;;13.01;74.04688;95941.5;;;;
2022/08/09 02:35:59;;;;;;;7.900001;7.2;;;;;;;13.01;74.04688;95941.5;;;;
2022/08/09 02:37:01;;;;;;;7.900001;7.2;;;;;;;13.01;74.04688;95941.5;;;;
2022/08/09 02:38:06;;;;;;;7.900001;7.2;;;;;;;13.01;74.04688;95941.5;;;;
2022/08/09 02:39:09;;;;;;;7.900001;7.2;;;;;;;13.01;74.04688;95941.5;;;;
2022/08/09 02:40:17;;;;;;;7.900001;7.2;;;;;;;13.01;74.04688;95941.5;;;;
2022/08/09 02:41:21;;;;;;;7.900001;7.2;;;;;;;13.01;74.04688;95941.5;;;;
2022/08/09 02:42:31;;;;;;;7.900001;7.2;;;;;;;13.01;74.04688;95941.5;;;;
2022/08/09 02:43:35;;;;;;;7.900001;7.2;;;;;;;13.01;74.04688;95941.5;;;;
2022/08/09 02:44:39;;;;;;;7.900001;7.2;;;;;;;13.01;74.04688;95941.5;;;;
2022/08/09 02:45:45;;;;;;;7.900001;7.2;;;;;;;13.01;74.04688;95941.5;;;;
2022/08/09 02:46:48;;;;;;;7.900001;7.2;;;;;;;13.01;74.04688;95941.5;;;;
2022/08/09 02:47:52;;;;;;;7.900001;7.2;;;;;;;13.01;74.04688;95941.5;;;;
2022/08/09 02:48:55;;;;;;;8.749998;7.950001;;;;;;;12.84;74.51758;95942.44;;;;
2022/08/09 02:50:01;;;;;;;8.749998;7.950001;;;;;;;12.84;74.51758;95942.44;;;;
2022/08/09 02:51:06;;;;;;;8.749998;7.950001;;;;;;;12.84;74.51758;95942.44;;;;
2022/08/09 02:52:10;;;;;;;8.749998;7.950001;;;;;;;12.84;74.51758;95942.44;;;;
2022/08/09 02:53:14;;;;;;;8.749998;7.950001;;;;;;;12.84;74.51758;95942.44;;;;
2022/08/09 02:54:21;;;;;;;8.749998;7.950001;;;;;;;12.84;74.51758;95942.44;;;;
2022/08/09 02:55:24;;;;;;;8.749998;7.950001;;;;;;;12.84;74.51758;95942.44;;;;
2022/08/09 02:56:27;;;;;;;8.749998;7.950001;;;;;;;12.84;74.51758;95942.44;;;;
2022/08/09 02:57:30;;;;;;;8.749998;7.950001;;;;;;;12.84;74.51758;95942.44;;;;
2022/08/09 02:58:33;;;;;;;8.749998;7.950001;;;;;;;12.84;74.51758;95942.44;;;;
2022/08/09 02:59:34;;;;;;;8.150002;7.45;;;;;;;12.79;74.74609;95940.01;;;;
2022/08/09 03:00:37;;;;;;;8.150002;7.45;;;;;;;12.79;74.74609;95940.01;;;;
2022/08/09 03:01:39;;;;;;;8.150002;7.45;;;;;;;12.79;74.74609;95940.01;;;;
2022/08/09 03:02:41;;;;;;;8.150002;7.45;;;;;;;12.79;74.74609;95940.01;;;;
2022/08/09 03:03:45;;;;;;;8.150002;7.45;;;;;;;12.79;74.74609;95940.01;;;;
2022/08/09 03:04:47;;;;;;;8.150002;7.45;;;;;;;12.79;74.74609;95940.01;;;;
2022/08/09 03:05:48;;;;;;;8.150002;7.45;;;;;;;12.79;74.74609;95940.01;;;;
2022/08/09 03:06:50;;;;;;;8.150002;7.45;;;;;;;12.79;74.74609;95940.01;;;;
2022/08/09 03:07:51;;;;;;;8.150002;7.45;;;;;;;12.79;74.74609;95940.01;;;;
2022/08/09 03:08:54;;;;;;;8.150002;7.45;;;;;;;12.79;74.74609;95940.01;;;;
2022/08/09 03:09:56;;;;;;;8.150002;7.45;;;;;;;12.79;74.74609;95940.01;;;;
2022/08/09 03:10:58;;;;;;;8.6;7.9;;;;;;;12.68;74.9541;95942.11;;;;
2022/08/09 03:12:00;;;;;;;8.6;7.9;;;;;;;12.68;74.9541;95942.11;;;;
2022/08/09 03:13:01;;;;;;;8.6;7.9;;;;;;;12.68;74.9541;95942.11;;;;
2022/08/09 03:14:03;;;;;;;8.6;7.9;;;;;;;12.68;74.9541;95942.11;;;;
2022/08/09 03:15:05;;;;;;;8.6;7.9;;;;;;;12.68;74.9541;95942.11;;;;
2022/08/09 03:16:08;;;;;;;8.6;7.9;;;;;;;12.68;74.9541;95942.11;;;;
2022/08/09 03:17:09;;;;;;;8.6;7.9;;;;;;;12.68;74.9541;95942.11;;;;
2022/08/09 03:18:11;;;;;;;8.6;7.9;;;;;;;12.68;74.9541;95942.11;;;;
2022/08/09 03:19:13;;;;;;;8.6;7.9;;;;;;;12.68;74.9541;95942.11;;;;
2022/08/09 03:20:15;;;;;;;8.6;7.9;;;;;;;12.68;74.9541;95942.11;;;;
2022/08/09 03:21:16;;;;;;;8.6;7.849999;;;;;;;12.64;75.19629;95935.99;;;;
2022/08/09 03:22:19;;;;;;;8.6;7.849999;;;;;;;12.64;75.19629;95935.99;;;;
2022/08/09 03:23:21;;;;;;;8.6;7.849999;;;;;;;12.64;75.19629;95935.99;;;;
2022/08/09 03:24:21;;;;;;;8.6;7.849999;;;;;;;12.64;75.19629;95935.99;;;;
2022/08/09 03:25:23;;;;;;;8.6;7.849999;;;;;;;12.64;75.19629;95935.99;;;;
2022/08/09 03:26:24;;;;;;;8.6;7.849999;;;;;;;12.64;75.19629;95935.99;;;;
2022/08/09 03:27:25;;;;;;;8.6;7.849999;;;;;;;12.64;75.19629;95935.99;;;;
2022/08/09 03:28:27;;;;;;;8.6;7.849999;;;;;;;12.64;75.19629;95935.99;;;;
2022/08/09 03:29:29;;;;;;;8.6;7.849999;;;;;;;12.64;75.19629;95935.99;;;;
2022/08/09 03:30:31;;;;;;;8.6;7.849999;;;;;;;12.64;75.19629;95935.99;;;;
2022/08/09 03:31:32;;;;;;;8.65;7.85;;;;;;;12.54;75.43945;95941.72;;;;
2022/08/09 03:32:34;;;;;;;8.65;7.85;;;;;;;12.54;75.43945;95941.72;;;;
2022/08/09 03:33:36;;;;;;;8.65;7.85;;;;;;;12.54;75.43945;95941.72;;;;
2022/08/09 03:34:38;;;;;;;8.65;7.85;;;;;;;12.54;75.43945;95941.72;;;;
2022/08/09 03:35:39;;;;;;;8.65;7.85;;;;;;;12.54;75.43945;95941.72;;;;
2022/08/09 03:36:39;;;;;;;8.65;7.85;;;;;;;12.54;75.43945;95941.72;;;;
2022/08/09 03:37:40;;;;;;;8.65;7.85;;;;;;;12.54;75.43945;95941.72;;;;
2022/08/09 03:38:41;;;;;;;8.65;7.85;;;;;;;12.54;75.43945;95941.72;;;;
2022/08/09 03:39:43;;;;;;;8.65;7.85;;;;;;;12.54;75.43945;95941.72;;;;
2022/08/09 03:40:44;;;;;;;8.65;7.85;;;;;;;12.54;75.43945;95941.72;;;;
2022/08/09 03:41:44;;;;;;;8.65;7.85;;;;;;;12.54;75.43945;95941.72;;;;
2022/08/09 03:42:45;;;;;;;7.75;7.050001;;;;;;;12.51;75.68164;95948.36;;;;
2022/08/09 03:43:45;;;;;;;7.75;7.050001;;;;;;;12.51;75.68164;95948.36;;;;
2022/08/09 03:44:46;;;;;;;7.75;7.050001;;;;;;;12.51;75.68164;95948.36;;;;
2022/08/09 03:45:47;;;;;;;7.75;7.050001;;;;;;;12.51;75.68164;95948.36;;;;
2022/08/09 03:46:47;;;;;;;7.75;7.050001;;;;;;;12.51;75.68164;95948.36;;;;
2022/08/09 03:47:48;;;;;;;7.75;7.050001;;;;;;;12.51;75.68164;95948.36;;;;
2022/08/09 03:48:48;;;;;;;7.75;7.050001;;;;;;;12.51;75.68164;95948.36;;;;
2022/08/09 03:49:52;;;;;;;7.75;7.050001;;;;;;;12.51;75.68164;95948.36;;;;
2022/08/09 03:50:55;;;;;;;7.75;7.050001;;;;;;;12.51;75.68164;95948.36;;;;
2022/08/09 03:51:56;;;;;;;7.75;7.050001;;;;;;;12.51;75.68164;95948.36;;;;
2022/08/09 03:52:59;;;;;;;8.350001;7.6;;;;;;;12.4;75.83496;95950.33;;;;
2022/08/09 03:54:02;;;;;;;8.350001;7.6;;;;;;;12.4;75.83496;95950.33;;;;
2022/08/09 03:55:03;;;;;;;8.350001;7.6;;;;;;;12.4;75.83496;95950.33;;;;
2022/08/09 03:56:06;;;;;;;8.350001;7.6;;;;;;;12.4;75.83496;95950.33;;;;
2022/08/09 03:57:07;;;;;;;8.350001;7.6;;;;;;;12.4;75.83496;95950.33;;;;
2022/08/09 03:58:10;;;;;;;8.350001;7.6;;;;;;;12.4;75.83496;95950.33;;;;
2022/08/09 03:59:10;;;;;;;8.350001;7.6;;;;;;;12.4;75.83496;95950.33;;;;
2022/08/09 04:00:12;;;;;;;8.350001;7.6;;;;;;;12.4;75.83496;95950.33;;;;
2022/08/09 04:01:13;;;;;;;8.350001;7.6;;;;;;;12.4;75.83496;95950.33;;;;
2022/08/09 04:02:14;;;;;;;8.350001;7.6;;;;;;;12.4;75.83496;95950.33;;;;
2022/08/09 04:03:15;;;;;;;8.350001;7.6;;;;;;;12.4;75.83496;95950.33;;;;
2022/08/09 04:04:16;;;;;;;8.150002;7.45;;;;;;;12.38;76.02832;95960.74;;;;
2022/08/09 04:05:17;;;;;;;8.150002;7.45;;;;;;;12.38;76.02832;95960.74;;;;
2022/08/09 04:06:18;;;;;;;8.150002;7.45;;;;;;;12.38;76.02832;95960.74;;;;
2022/08/09 04:07:19;;;;;;;8.150002;7.45;;;;;;;12.38;76.02832;95960.74;;;;
2022/08/09 04:08:19;;;;;;;8.150002;7.45;;;;;;;12.38;76.02832;95960.74;;;;
2022/08/09 04:09:20;;;;;;;8.150002;7.45;;;;;;;12.38;76.02832;95960.74;;;;
2022/08/09 04:10:21;;;;;;;8.150002;7.45;;;;;;;12.38;76.02832;95960.74;;;;
2022/08/09 04:11:23;;;;;;;8.150002;7.45;;;;;;;12.38;76.02832;95960.74;;;;
2022/08/09 04:12:23;;;;;;;8.150002;7.45;;;;;;;12.38;76.02832;95960.74;;;;
2022/08/09 04:13:40;;;;;;;8.150002;7.45;;;;;;;12.38;76.02832;95960.74;;;;
2022/08/09 04:14:40;;;;;;;8.099999;7.4;;;;;;;12.33;76.1582;95970.72;;;;
2022/08/09 04:15:43;;;;;;;8.099999;7.4;;;;;;;12.33;76.1582;95970.72;;;;
2022/08/09 04:16:44;;;;;;;8.099999;7.4;;;;;;;12.33;76.1582;95970.72;;;;
2022/08/09 04:17:44;;;;;;;8.099999;7.4;;;;;;;12.33;76.1582;95970.72;;;;
2022/08/09 04:18:45;;;;;;;8.099999;7.4;;;;;;;12.33;76.1582;95970.72;;;;
2022/08/09 04:19:45;;;;;;;8.099999;7.4;;;;;;;12.33;76.1582;95970.72;;;;
2022/08/09 04:20:45;;;;;;;8.099999;7.4;;;;;;;12.33;76.1582;95970.72;;;;
2022/08/09 04:21:46;;;;;;;8.099999;7.4;;;;;;;12.33;76.1582;95970.72;;;;
2022/08/09 04:22:47;;;;;;;8.099999;7.4;;;;;;;12.33;76.1582;95970.72;;;;
2022/08/09 04:23:47;;;;;;;8.099999;7.4;;;;;;;12.33;76.1582;95970.72;;;;
2022/08/09 04:24:48;;;;;;;8.399999;7.599999;;;;;;;12.37;76.24023;95972.34;;;;
2022/08/09 04:25:48;;;;;;;8.399999;7.599999;;;;;;;12.37;76.24023;95972.34;;;;
2022/08/09 04:26:49;;;;;;;8.399999;7.599999;;;;;;;12.37;76.24023;95972.34;;;;
2022/08/09 04:27:49;;;;;;;8.399999;7.599999;;;;;;;12.37;76.24023;95972.34;;;;
2022/08/09 04:28:50;;;;;;;8.399999;7.599999;;;;;;;12.37;76.24023;95972.34;;;;
2022/08/09 04:29:50;;;;;;;8.399999;7.599999;;;;;;;12.37;76.24023;95972.34;;;;
2022/08/09 04:30:51;;;;;;;8.399999;7.599999;;;;;;;12.37;76.24023;95972.34;;;;
2022/08/09 04:31:52;;;;;;;8.399999;7.599999;;;;;;;12.37;76.24023;95972.34;;;;
2022/08/09 04:32:52;;;;;;;8.399999;7.599999;;;;;;;12.37;76.24023;95972.34;;;;
2022/08/09 04:33:53;;;;;;;8.399999;7.599999;;;;;;;12.37;76.24023;95972.34;;;;
2022/08/09 04:34:53;;;;;;;8.399999;7.599999;;;;;;;12.37;76.24023;95972.34;;;;
2022/08/09 04:35:54;;;;;;;8.399999;7.599999;;;;;;;12.37;76.24023;95972.34;;;;
2022/08/09 04:36:54;;;;;;;8.399999;7.599999;;;;;;;12.37;76.24023;95972.34;;;;
2022/08/09 04:37:55;;;;;;;8.399999;7.599999;;;;;;;12.37;76.24023;95972.34;;;;
2022/08/09 04:38:55;;;;;;;8.399999;7.599999;;;;;;;12.37;76.24023;95972.34;;;;
2022/08/09 04:39:59;;;;;;;8.399999;7.599999;;;;;;;12.37;76.24023;95972.34;;;;
2022/08/09 04:41:00;;;;;;;8.399999;7.599999;;;;;;;12.37;76.24023;95972.34;;;;
2022/08/09 04:42:01;;;;;;;8.399999;7.599999;;;;;;;12.37;76.24023;95972.34;;;;
2022/08/09 04:43:01;;;;;;;8.399999;7.599999;;;;;;;12.37;76.24023;95972.34;;;;
2022/08/09 04:44:02;;;;;;;8.399999;7.599999;;;;;;;12.37;76.24023;95972.34;;;;
2022/08/09 04:45:04;;;;;;;8.399999;7.599999;;;;;;;12.37;76.24023;95972.34;;;;
2022/08/09 04:46:06;;;;;;;9.100001;8.150002;;;;;;;12.45;76.42773;95978.34;;;;
2022/08/09 04:47:06;;;;;;;9.100001;8.150002;;;;;;;12.45;76.42773;95978.34;;;;
2022/08/09 04:48:07;;;;;;;9.100001;8.150002;;;;;;;12.45;76.42773;95978.34;;;;
2022/08/09 04:49:07;;;;;;;9.100001;8.150002;;;;;;;12.45;76.42773;95978.34;;;;
2022/08/09 04:50:08;;;;;;;9.100001;8.150002;;;;;;;12.45;76.42773;95978.34;;;;
2022/08/09 04:51:09;;;;;;;9.100001;8.150002;;;;;;;12.45;76.42773;95978.34;;;;
2022/08/09 04:52:10;;;;;;;9.100001;8.150002;;;;;;;12.45;76.42773;95978.34;;;;
2022/08/09 04:53:11;;;;;;;9.100001;8.150002;;;;;;;12.45;76.42773;95978.34;;;;
2022/08/09 04:54:11;;;;;;;9.100001;8.150002;;;;;;;12.45;76.42773;95978.34;;;;
2022/08/09 04:55:13;;;;;;;9.100001;8.150002;;;;;;;12.45;76.42773;95978.34;;;;
2022/08/09 04:56:13;;;;;;;9.100001;8.150002;;;;;;;12.45;76.42773;95978.34;;;;
2022/08/09 04:57:14;;;;;;;9.849999;8.950001;;;;;;;12.52;76.52734;95990.59;;;;
2022/08/09 04:58:14;;;;;;;9.849999;8.950001;;;;;;;12.52;76.52734;95990.59;;;;
2022/08/09 04:59:15;;;;;;;9.849999;8.950001;;;;;;;12.52;76.52734;95990.59;;;;
2022/08/09 05:00:15;;;;;;;9.849999;8.950001;;;;;;;12.52;76.52734;95990.59;;;;
2022/08/09 05:01:16;;;;;;;9.849999;8.950001;;;;;;;12.52;76.52734;95990.59;;;;
2022/08/09 05:02:17;;;;;;;9.849999;8.950001;;;;;;;12.52;76.52734;95990.59;;;;
2022/08/09 05:03:17;;;;;;;9.849999;8.950001;;;;;;;12.52;76.52734;95990.59;;;;
2022/08/09 05:04:18;;;;;;;9.849999;8.950001;;;;;;;12.52;76.52734;95990.59;;;;
2022/08/09 05:05:18;;;;;;;9.849999;8.950001;;;;;;;12.52;76.52734;95990.59;;;;
2022/08/09 05:06:19;;;;;;;9.849999;8.950001;;;;;;;12.52;76.52734;95990.59;;;;
2022/08/09 05:07:20;;;;;;;9.849999;8.950001;;;;;;;12.52;76.52734;95990.59;;;;
2022/08/09 05:08:20;;;;;;;10;9;;;;;;;12.75;76.64258;95997.18;;;;
2022/08/09 05:09:21;;;;;;;10;9;;;;;;;12.75;76.64258;95997.18;;;;
2022/08/09 05:10:21;;;;;;;10;9;;;;;;;12.75;76.64258;95997.18;;;;
2022/08/09 05:11:22;;;;;;;10;9;;;;;;;12.75;76.64258;95997.18;;;;
2022/08/09 05:12:22;;;;;;;10;9;;;;;;;12.75;76.64258;95997.18;;;;
2022/08/09 05:13:23;;;;;;;10;9;;;;;;;12.75;76.64258;95997.18;;;;
2022/08/09 05:14:23;;;;;;;10;9;;;;;;;12.75;76.64258;95997.18;;;;
2022/08/09 05:15:25;;;;;;;10;9;;;;;;;12.75;76.64258;95997.18;;;;
2022/08/09 05:16:25;;;;;;;10;9;;;;;;;12.75;76.64258;95997.18;;;;
2022/08/09 05:17:26;;;;;;;10;9;;;;;;;12.75;76.64258;95997.18;;;;
2022/08/09 05:18:28;;;;;;;10.05;9.200001;;;;;;;13;76.66504;96003.42;;;;
2022/08/09 05:19:29;;;;;;;10.05;9.200001;;;;;;;13;76.66504;96003.42;;;;
2022/08/09 05:20:29;;;;;;;10.05;9.200001;;;;;;;13;76.66504;96003.42;;;;
2022/08/09 05:21:30;;;;;;;10.05;9.200001;;;;;;;13;76.66504;96003.42;;;;
2022/08/09 05:22:31;;;;;;;10.05;9.200001;;;;;;;13;76.66504;96003.42;;;;
2022/08/09 05:23:31;;;;;;;10.05;9.200001;;;;;;;13;76.66504;96003.42;;;;
2022/08/09 05:24:32;;;;;;;10.05;9.200001;;;;;;;13;76.66504;96003.42;;;;
2022/08/09 05:25:32;;;;;;;10.05;9.200001;;;;;;;13;76.66504;96003.42;;;;
2022/08/09 05:26:34;;;;;;;10.05;9.200001;;;;;;;13;76.66504;96003.42;;;;
2022/08/09 05:27:35;;;;;;;10.05;9.200001;;;;;;;13;76.66504;96003.42;;;;
2022/08/09 05:28:35;;;;;;;10.05;9.200001;;;;;;;13;76.66504;96003.42;;;;
2022/08/09 05:29:36;;;;;;;8.95;8.1;;;;;;;13.47;76.74512;96006.76;;;;
2022/08/09 05:30:36;;;;;;;8.95;8.1;;;;;;;13.47;76.74512;96006.76;;;;
2022/08/09 05:31:37;;;;;;;8.95;8.1;;;;;;;13.47;76.74512;96006.76;;;;
2022/08/09 05:32:37;;;;;;;8.95;8.1;;;;;;;13.47;76.74512;96006.76;;;;
2022/08/09 05:33:38;;;;;;;8.95;8.1;;;;;;;13.47;76.74512;96006.76;;;;
2022/08/09 05:34:38;;;;;;;8.95;8.1;;;;;;;13.47;76.74512;96006.76;;;;
2022/08/09 05:35:39;;;;;;;8.95;8.1;;;;;;;13.47;76.74512;96006.76;;;;
2022/08/09 05:36:39;;;;;;;8.95;8.1;;;;;;;13.47;76.74512;96006.76;;;;
2022/08/09 05:37:40;;;;;;;8.95;8.1;;;;;;;13.47;76.74512;96006.76;;;;
2022/08/09 05:38:40;;;;;;;8.95;8.1;;;;;;;13.47;76.74512;96006.76;;;;